createdAt,value
2022-10-22T00:01:49.688Z,3.08
2022-10-22T00:04:57.256Z,3.19
2022-10-22T00:08:03.459Z,3.78
2022-10-22T00:11:16.482Z,3.56
2022-10-22T00:14:22.887Z,3.50
2022-10-22T00:17:29.061Z,2.70
2022-10-22T00:20:35.529Z,3.03
2022-10-22T00:23:42.943Z,2.74
2022-10-22T00:26:50.390Z,2.77
2022-10-22T00:29:56.473Z,2.83
2022-10-22T00:33:02.567Z,2.88
2022-10-22T00:36:10.265Z,2.86
2022-10-22T00:39:17.300Z,3.29
2022-10-22T00:42:27.099Z,2.42
2022-10-22T00:45:33.307Z,2.71
2022-10-22T00:48:39.496Z,3.30
2022-10-22T00:51:45.727Z,3.28
2022-10-22T00:54:53.149Z,3.23
2022-10-22T00:58:02.710Z,2.60
2022-10-22T01:01:10.605Z,2.21
2022-10-22T01:04:16.808Z,2.42
2022-10-22T01:07:25.675Z,3.17
2022-10-22T01:10:44.908Z,3.12
2022-10-22T01:13:59.372Z,2.96
2022-10-22T01:17:09.924Z,2.63
2022-10-22T01:20:28.791Z,2.94
2022-10-22T01:24:06.459Z,2.96
2022-10-22T01:27:24.122Z,2.60
2022-10-22T01:30:32.008Z,1.96
2022-10-22T01:33:39.412Z,1.56
2022-10-22T01:36:47.025Z,1.89
2022-10-22T01:39:55.527Z,2.12
2022-10-22T01:43:05.096Z,2.22
2022-10-22T01:46:14.711Z,2.22
2022-10-22T01:49:34.699Z,2.97
2022-10-22T01:52:57.395Z,2.95
2022-10-22T01:56:18.408Z,2.41
2022-10-22T01:59:34.476Z,1.59
2022-10-22T02:02:49.687Z,1.57
2022-10-22T02:06:00.851Z,1.55
2022-10-22T02:09:09.062Z,1.55
2022-10-22T02:12:16.742Z,2.41
2022-10-22T02:15:25.096Z,2.32
2022-10-22T02:18:37.496Z,2.65
2022-10-22T02:21:46.621Z,2.12
2022-10-22T02:24:53.412Z,2.33
2022-10-22T02:28:06.935Z,1.72
2022-10-22T02:31:18.147Z,2.17
2022-10-22T02:34:31.555Z,2.43
2022-10-22T02:37:39.518Z,3.02
2022-10-22T02:40:46.371Z,2.94
2022-10-22T02:43:56.007Z,3.15
2022-10-22T02:47:02.279Z,2.94
2022-10-22T02:50:10.678Z,2.89
2022-10-22T02:53:19.667Z,3.26
2022-10-22T02:56:25.985Z,3.08
2022-10-22T02:59:32.452Z,2.28
2022-10-22T03:02:39.022Z,2.49
2022-10-22T03:05:46.782Z,1.48
2022-10-22T03:08:52.812Z,1.88
2022-10-22T03:11:59.102Z,1.39
2022-10-22T03:15:06.269Z,1.36
2022-10-22T03:18:12.298Z,1.65
2022-10-22T03:21:27.552Z,1.81
2022-10-22T03:24:44.251Z,2.48
2022-10-22T03:27:51.716Z,2.17
2022-10-22T03:30:57.868Z,2.45
2022-10-22T03:34:04.228Z,2.89
2022-10-22T03:37:12.440Z,2.67
2022-10-22T03:40:19.005Z,2.41
2022-10-22T03:43:24.863Z,2.08
2022-10-22T03:46:30.895Z,2.05
2022-10-22T03:49:37.159Z,2.24
2022-10-22T03:52:44.722Z,2.34
2022-10-22T03:55:50.818Z,2.60
2022-10-22T03:58:58.623Z,2.72
2022-10-22T04:02:05.254Z,2.52
2022-10-22T04:05:11.574Z,2.70
2022-10-22T04:08:19.356Z,2.89
2022-10-22T04:11:25.389Z,2.50
2022-10-22T04:14:31.724Z,2.87
2022-10-22T04:17:38.612Z,2.44
2022-10-22T04:20:44.992Z,1.98
2022-10-22T04:23:54.479Z,1.92
2022-10-22T04:27:00.770Z,2.29
2022-10-22T04:30:08.205Z,1.88
2022-10-22T04:33:14.176Z,1.70
2022-10-22T04:36:20.894Z,1.34
2022-10-22T04:39:28.606Z,1.08
2022-10-22T04:42:34.740Z,1.47
2022-10-22T04:45:40.896Z,1.56
2022-10-22T04:48:48.012Z,1.50
2022-10-22T04:51:53.903Z,1.38
2022-10-22T04:55:01.334Z,1.72
2022-10-22T04:58:07.363Z,2.12
2022-10-22T05:01:15.052Z,1.57
2022-10-22T05:04:21.283Z,1.65
2022-10-22T05:07:27.464Z,2.08
2022-10-22T05:10:35.228Z,2.40
2022-10-22T05:13:41.565Z,2.82
2022-10-22T05:16:49.127Z,2.99
2022-10-22T05:19:55.687Z,3.24
2022-10-22T05:23:01.894Z,3.29
2022-10-22T05:26:11.282Z,3.49
2022-10-22T05:29:17.593Z,3.20
2022-10-22T05:32:24.324Z,2.32
2022-10-22T05:35:30.614Z,2.69
2022-10-22T05:38:37.583Z,3.08
2022-10-22T05:41:45.127Z,3.69
2022-10-22T05:44:51.315Z,3.69
2022-10-22T05:47:57.506Z,4.13
2022-10-22T05:51:05.683Z,4.22
2022-10-22T05:54:18.405Z,4.59
2022-10-22T05:57:25.810Z,3.74
2022-10-22T06:00:31.882Z,3.76
2022-10-22T06:03:38.119Z,3.94
2022-10-22T06:06:46.314Z,3.72
2022-10-22T06:09:53.906Z,3.37
2022-10-22T06:13:03.461Z,3.73
2022-10-22T06:16:09.652Z,3.92
2022-10-22T06:19:18.017Z,3.73
2022-10-22T06:22:24.095Z,3.81
2022-10-22T06:25:30.596Z,4.67
2022-10-22T06:28:39.311Z,4.55
2022-10-22T06:31:45.482Z,5.14
2022-10-22T06:34:52.095Z,5.24
2022-10-22T06:37:58.364Z,5.82
2022-10-22T06:41:05.880Z,5.99
2022-10-22T06:44:16.431Z,6.48
2022-10-22T06:47:22.692Z,6.80
2022-10-22T06:50:29.161Z,6.84
2022-10-22T06:53:36.468Z,6.59
2022-10-22T06:56:43.025Z,6.80
2022-10-22T06:59:50.775Z,7.06
2022-10-22T07:02:59.168Z,7.51
2022-10-22T07:06:10.585Z,6.90
2022-10-22T07:12:28.187Z,7.39
2022-10-22T07:15:35.596Z,7.29
2022-10-22T07:18:42.341Z,6.99
2022-10-22T07:21:48.447Z,7.50
2022-10-22T07:24:54.752Z,8.35
2022-10-22T07:28:01.041Z,8.34
2022-10-22T07:31:17.741Z,8.28
2022-10-22T07:34:23.940Z,8.49
2022-10-22T07:37:30.048Z,9.10
2022-10-22T07:40:36.889Z,8.86
2022-10-22T07:43:43.268Z,9.30
2022-10-22T07:46:50.815Z,9.00
2022-10-22T07:49:56.875Z,8.91
2022-10-22T07:53:03.376Z,9.84
2022-10-22T07:56:09.724Z,10.32
2022-10-22T07:59:16.048Z,10.71
2022-10-22T08:02:23.977Z,10.59
2022-10-22T08:05:30.138Z,10.94
2022-10-22T08:08:36.661Z,11.47
2022-10-22T08:11:42.857Z,11.01
2022-10-22T08:14:49.157Z,11.30
2022-10-22T08:17:56.838Z,11.41
2022-10-22T08:21:02.802Z,11.70
2022-10-22T08:24:09.561Z,11.60
2022-10-22T08:27:15.739Z,11.52
2022-10-22T08:30:21.884Z,12.17
2022-10-22T08:33:29.459Z,12.35
2022-10-22T08:36:35.913Z,12.73
2022-10-22T08:39:42.236Z,12.52
2022-10-22T08:43:36.696Z,13.34
2022-10-22T08:46:59.601Z,13.51
2022-10-22T08:50:10.916Z,13.24
2022-10-22T08:53:19.454Z,13.22
2022-10-22T08:56:26.008Z,13.51
2022-10-22T08:59:41.200Z,13.95
2022-10-22T09:03:02.919Z,14.10
2022-10-22T09:06:14.923Z,13.88
2022-10-22T09:09:22.595Z,14.08
2022-10-22T09:12:29.666Z,14.61
2022-10-22T09:15:36.053Z,14.82
2022-10-22T09:18:47.688Z,15.07
2022-10-22T09:22:02.870Z,14.69
2022-10-22T09:25:21.195Z,14.71
2022-10-22T09:28:27.499Z,14.69
2022-10-22T09:31:34.722Z,14.96
2022-10-22T09:34:40.831Z,15.47
2022-10-22T09:37:53.195Z,16.24
2022-10-22T09:41:03.992Z,16.01
2022-10-22T09:44:14.176Z,16.75
2022-10-22T09:47:42.921Z,17.51
2022-10-22T09:51:01.803Z,16.82
2022-10-22T09:54:17.172Z,16.66
2022-10-22T09:57:23.988Z,17.00
2022-10-22T10:00:31.599Z,17.37
2022-10-22T10:03:37.743Z,17.14
2022-10-22T10:06:45.942Z,17.37
2022-10-22T10:09:55.380Z,17.08
2022-10-22T10:13:13.783Z,17.81
2022-10-22T10:16:38.195Z,17.58
2022-10-22T10:20:01.380Z,17.85
2022-10-22T10:23:23.120Z,17.96
2022-10-22T10:26:40.512Z,17.67
2022-10-22T10:29:55.639Z,18.81
2022-10-22T10:33:15.830Z,18.48
2022-10-22T10:36:32.574Z,19.40
2022-10-22T10:39:50.727Z,18.69
2022-10-22T10:43:03.996Z,17.98
2022-10-22T10:46:19.114Z,19.37
2022-10-22T10:49:27.418Z,19.90
2022-10-22T10:52:39.777Z,19.13
2022-10-22T10:55:58.404Z,19.95
2022-10-22T10:59:24.938Z,20.04
2022-10-22T11:03:12.454Z,20.11
2022-10-22T11:06:24.557Z,20.27
2022-10-22T11:09:37.722Z,19.28
2022-10-22T11:12:48.917Z,19.82
2022-10-22T11:16:00.788Z,19.86
2022-10-22T11:19:22.545Z,20.81
2022-10-22T11:22:38.453Z,20.67
2022-10-22T11:25:47.261Z,20.07
2022-10-22T11:28:56.183Z,20.98
2022-10-22T11:32:05.261Z,20.85
2022-10-22T11:35:16.716Z,21.45
2022-10-22T11:38:27.193Z,21.41
2022-10-22T11:41:35.695Z,21.46
2022-10-22T11:45:01.024Z,21.89
2022-10-22T11:48:18.986Z,21.23
2022-10-22T11:51:35.502Z,22.05
2022-10-22T11:54:45.380Z,21.69
2022-10-22T11:57:51.651Z,22.26
2022-10-22T12:00:59.189Z,21.29
2022-10-22T12:04:22.683Z,22.06
2022-10-22T12:07:35.465Z,22.13
2022-10-22T12:10:56.992Z,22.34
2022-10-22T12:14:15.901Z,22.26
2022-10-22T12:17:24.064Z,22.50
2022-10-22T12:20:32.490Z,22.50
2022-10-22T12:23:39.017Z,22.66
2022-10-22T12:26:46.083Z,22.84
2022-10-22T12:29:57.258Z,22.85
2022-10-22T12:33:05.444Z,22.77
2022-10-22T12:36:19.161Z,22.55
2022-10-22T12:39:28.691Z,23.00
2022-10-22T12:42:38.215Z,22.76
2022-10-22T12:45:46.623Z,22.53
2022-10-22T12:48:52.746Z,23.10
2022-10-22T12:52:04.458Z,22.99
2022-10-22T12:55:16.139Z,22.87
2022-10-22T12:58:26.652Z,23.15
2022-10-22T13:01:37.685Z,23.49
2022-10-22T13:04:44.207Z,23.58
2022-10-22T13:07:53.636Z,23.22
2022-10-22T13:11:09.382Z,22.93
2022-10-22T13:14:21.529Z,22.56
2022-10-22T13:17:41.218Z,22.88
2022-10-22T13:20:56.705Z,22.96
2022-10-22T13:24:20.520Z,23.27
2022-10-22T13:27:27.565Z,22.64
2022-10-22T13:30:35.554Z,23.32
2022-10-22T13:33:44.545Z,22.81
2022-10-22T13:36:51.033Z,23.43
2022-10-22T13:39:58.840Z,23.71
2022-10-22T13:43:04.824Z,23.93
2022-10-22T13:46:11.754Z,23.85
2022-10-22T13:49:20.992Z,22.92
2022-10-22T13:52:34.651Z,22.03
2022-10-22T13:55:42.210Z,20.72
2022-10-22T13:58:49.489Z,20.68
2022-10-22T14:01:57.087Z,20.63
2022-10-22T14:05:04.574Z,20.61
2022-10-22T14:08:13.922Z,21.16
2022-10-22T14:11:21.817Z,21.07
2022-10-22T14:14:28.238Z,21.32
2022-10-22T14:17:34.854Z,20.75
2022-10-22T14:20:43.264Z,20.26
2022-10-22T14:23:51.287Z,19.78
2022-10-22T14:26:59.127Z,19.98
2022-10-22T14:30:05.951Z,19.55
2022-10-22T14:33:16.354Z,19.44
2022-10-22T14:36:22.611Z,19.17
2022-10-22T14:39:28.973Z,18.88
2022-10-22T14:42:41.746Z,19.02
2022-10-22T14:45:48.340Z,18.67
2022-10-22T14:48:54.339Z,18.53
2022-10-22T14:52:00.796Z,18.48
2022-10-22T14:55:08.507Z,18.34
2022-10-22T14:58:16.251Z,18.08
2022-10-22T15:01:22.538Z,17.69
2022-10-22T15:04:30.585Z,17.63
2022-10-22T15:07:37.199Z,17.36
2022-10-22T15:10:43.967Z,17.41
2022-10-22T15:13:51.458Z,17.35
2022-10-22T15:16:57.767Z,16.89
2022-10-22T15:20:05.572Z,16.79
2022-10-22T15:23:11.919Z,16.54
2022-10-22T15:26:18.989Z,16.26
2022-10-22T15:29:26.580Z,16.22
2022-10-22T15:32:33.722Z,16.07
2022-10-22T15:35:40.078Z,15.79
2022-10-22T15:38:46.418Z,15.72
2022-10-22T15:41:53.567Z,15.52
2022-10-22T15:45:02.325Z,14.75
2022-10-22T15:48:09.683Z,14.86
2022-10-22T15:51:19.892Z,14.96
2022-10-22T15:54:28.789Z,14.68
2022-10-22T15:57:34.912Z,14.75
2022-10-22T16:00:42.787Z,14.49
2022-10-22T16:03:52.527Z,14.02
2022-10-22T16:06:59.249Z,13.93
2022-10-22T16:10:07.743Z,13.85
2022-10-22T16:13:14.045Z,13.41
2022-10-22T16:16:22.450Z,13.26
2022-10-22T16:19:28.959Z,13.12
2022-10-22T16:22:35.482Z,13.36
2022-10-22T16:25:42.591Z,13.38
2022-10-22T16:28:49.787Z,13.27
2022-10-22T16:31:57.324Z,13.00
2022-10-22T16:35:03.427Z,12.84
2022-10-22T16:38:10.972Z,12.71
2022-10-22T16:41:18.762Z,12.14
2022-10-22T16:44:25.365Z,12.00
2022-10-22T16:47:33.115Z,12.30
2022-10-22T16:50:41.392Z,12.06
2022-10-22T16:53:47.989Z,12.10
2022-10-22T16:56:54.011Z,12.25
2022-10-22T17:00:00.342Z,11.95
2022-10-22T17:03:08.204Z,11.98
2022-10-22T17:06:15.271Z,11.78
2022-10-22T17:09:21.580Z,11.64
2022-10-22T17:12:28.377Z,11.56
2022-10-22T17:15:34.568Z,11.83
2022-10-22T17:21:55.916Z,11.32
2022-10-22T17:25:13.077Z,11.21
2022-10-22T17:28:19.307Z,11.03
2022-10-22T17:31:27.773Z,10.93
2022-10-22T17:34:35.023Z,10.83
2022-10-22T17:37:41.199Z,10.96
2022-10-22T17:40:47.718Z,10.89
2022-10-22T17:43:54.393Z,10.75
2022-10-22T17:47:01.228Z,10.89
2022-10-22T17:50:10.447Z,11.35
2022-10-22T17:53:16.743Z,11.24
2022-10-22T17:56:24.873Z,10.98
2022-10-22T17:59:31.266Z,10.65
2022-10-22T18:02:38.001Z,9.71
2022-10-22T18:05:45.995Z,10.09
2022-10-22T18:12:03.017Z,10.08
2022-10-22T18:15:10.191Z,9.98
2022-10-22T18:18:16.679Z,9.68
2022-10-22T18:21:26.575Z,10.12
2022-10-22T18:24:32.767Z,10.05
2022-10-22T18:27:39.024Z,9.92
2022-10-22T18:30:45.783Z,9.87
2022-10-22T18:37:04.885Z,9.87
2022-10-22T18:40:14.573Z,9.95
2022-10-22T18:43:20.693Z,9.75
2022-10-22T18:46:28.294Z,9.80
2022-10-22T18:49:34.440Z,9.78
2022-10-22T18:52:42.296Z,9.75
2022-10-22T18:55:48.553Z,9.50
2022-10-22T18:58:54.906Z,9.28
2022-10-22T19:02:01.424Z,9.08
2022-10-22T19:05:08.581Z,9.39
2022-10-22T19:08:17.442Z,9.32
2022-10-22T19:11:24.542Z,8.92
2022-10-22T19:14:31.034Z,9.18
2022-10-22T19:17:37.387Z,9.10
2022-10-22T19:20:45.248Z,8.97
2022-10-22T19:23:52.925Z,9.09
2022-10-22T19:26:59.124Z,8.85
2022-10-22T19:30:05.998Z,9.09
2022-10-22T19:33:12.283Z,8.80
2022-10-22T19:36:20.101Z,8.74
2022-10-22T19:39:27.864Z,8.87
2022-10-22T19:42:34.349Z,8.95
2022-10-22T19:45:41.686Z,8.99
2022-10-22T19:48:48.834Z,8.88
2022-10-22T19:51:55.376Z,8.84
2022-10-22T19:55:03.337Z,8.27
2022-10-22T19:58:09.628Z,8.17
2022-10-22T20:01:18.276Z,8.44
2022-10-22T20:04:28.107Z,8.63
2022-10-22T20:07:34.847Z,8.43
2022-10-22T20:10:42.352Z,8.60
2022-10-22T20:13:51.396Z,8.38
2022-10-22T20:16:58.846Z,8.13
2022-10-22T20:20:05.948Z,8.15
2022-10-22T20:23:12.144Z,8.42
2022-10-22T20:26:20.280Z,8.32
2022-10-22T20:29:26.545Z,8.12
2022-10-22T20:32:33.384Z,7.92
2022-10-22T20:35:40.306Z,7.59
2022-10-22T20:38:48.359Z,7.92
2022-10-22T20:41:55.830Z,8.14
2022-10-22T20:45:01.807Z,8.54
2022-10-22T20:48:08.666Z,8.25
2022-10-22T20:51:15.393Z,7.80
2022-10-22T20:54:21.399Z,7.76
2022-10-22T20:57:29.606Z,7.47
2022-10-22T21:00:36.264Z,7.73
2022-10-22T21:03:42.659Z,7.97
2022-10-22T21:06:50.353Z,7.65
2022-10-22T21:09:56.392Z,7.46
2022-10-22T21:13:04.031Z,7.57
2022-10-22T21:16:11.600Z,7.54
2022-10-22T21:19:18.989Z,7.78
2022-10-22T21:22:24.907Z,7.35
2022-10-22T21:25:30.967Z,7.50
2022-10-22T21:28:39.242Z,7.06
2022-10-22T21:31:45.384Z,6.97
2022-10-22T21:34:51.638Z,6.82
2022-10-22T21:37:57.817Z,7.02
2022-10-22T21:41:06.238Z,6.89
2022-10-22T21:44:14.012Z,6.74
2022-10-22T21:47:20.689Z,7.01
2022-10-22T21:50:26.960Z,7.47
2022-10-22T21:53:33.385Z,7.44
2022-10-22T21:56:40.405Z,7.49
2022-10-22T21:59:48.098Z,7.37
2022-10-22T22:02:54.465Z,6.84
2022-10-22T22:06:01.695Z,6.35
2022-10-22T22:09:08.148Z,6.69
2022-10-22T22:12:14.159Z,6.52
2022-10-22T22:15:21.863Z,6.65
2022-10-22T22:18:27.898Z,7.03
2022-10-22T22:21:35.169Z,7.43
2022-10-22T22:24:41.264Z,6.93
2022-10-22T22:27:47.712Z,7.09
2022-10-22T22:30:55.273Z,6.67
2022-10-22T22:34:02.610Z,7.01
2022-10-22T22:37:09.234Z,7.08
2022-10-22T22:40:15.566Z,7.45
2022-10-22T22:43:22.075Z,7.13
2022-10-22T22:46:30.274Z,7.13
2022-10-22T22:49:37.101Z,6.12
2022-10-22T22:52:43.378Z,6.73
2022-10-22T22:55:50.491Z,6.69
2022-10-22T22:58:56.882Z,6.78
2022-10-22T23:02:04.845Z,6.90
2022-10-22T23:05:12.180Z,6.75
2022-10-22T23:08:18.940Z,6.94
2022-10-22T23:11:26.391Z,6.58
2022-10-22T23:14:33.090Z,6.91
2022-10-22T23:17:40.596Z,6.44
2022-10-22T23:20:46.798Z,6.91
2022-10-22T23:23:55.042Z,7.24
2022-10-22T23:27:03.995Z,7.16
2022-10-22T23:30:11.456Z,6.61
2022-10-22T23:33:19.497Z,6.44
2022-10-22T23:36:25.661Z,6.79
2022-10-22T23:39:32.030Z,7.17
2022-10-22T23:45:45.478Z,6.92
2022-10-22T23:48:53.896Z,7.25
2022-10-22T23:52:00.184Z,7.33
2022-10-22T23:55:07.480Z,7.29
2022-10-22T23:58:14.335Z,6.53
